createdAt,value
2018-01-06T00:00:17.465Z,995.83
2018-01-06T00:01:17.439Z,995.81
2018-01-06T00:02:17.407Z,995.80
2018-01-06T00:03:17.429Z,995.83
2018-01-06T00:04:17.366Z,995.85
2018-01-06T00:05:17.343Z,995.83
2018-01-06T00:06:17.322Z,995.87
2018-01-06T00:07:17.308Z,995.87
2018-01-06T00:08:17.277Z,995.87
2018-01-06T00:09:17.268Z,995.93
2018-01-06T00:10:17.283Z,995.91
2018-01-06T00:11:17.227Z,995.95
2018-01-06T00:12:17.186Z,995.97
2018-01-06T00:13:17.234Z,995.92
2018-01-06T00:14:17.143Z,995.93
2018-01-06T00:15:17.128Z,995.95
2018-01-06T00:16:17.159Z,995.94
2018-01-06T00:17:17.077Z,995.93
2018-01-06T00:18:17.052Z,995.98
2018-01-06T00:19:17.037Z,996.01
2018-01-06T00:20:17.017Z,996.03
2018-01-06T00:21:17.127Z,996.04
2018-01-06T00:22:16.966Z,996.03
2018-01-06T00:23:16.944Z,996.11
2018-01-06T00:24:16.934Z,996.08
2018-01-06T00:25:16.909Z,996.09
2018-01-06T00:26:16.878Z,996.07
2018-01-06T00:27:16.863Z,996.10
2018-01-06T00:28:16.839Z,996.10
2018-01-06T00:29:16.818Z,996.10
2018-01-06T00:30:16.788Z,996.15
2018-01-06T00:31:16.765Z,996.14
2018-01-06T00:32:16.743Z,996.14
2018-01-06T00:33:16.722Z,996.20
2018-01-06T00:34:16.792Z,996.15
2018-01-06T00:35:16.676Z,996.16
2018-01-06T00:36:16.656Z,996.20
2018-01-06T00:37:16.632Z,996.21
2018-01-06T00:38:16.611Z,996.20
2018-01-06T00:39:16.611Z,996.23
2018-01-06T00:40:16.567Z,996.27
2018-01-06T00:41:16.556Z,996.24
2018-01-06T00:42:16.522Z,996.25
2018-01-06T00:43:16.511Z,996.25
2018-01-06T00:44:16.480Z,996.24
2018-01-06T00:45:16.455Z,996.29
2018-01-06T00:46:16.442Z,996.29
2018-01-06T00:47:16.407Z,996.30
2018-01-06T00:48:16.390Z,996.28
2018-01-06T00:49:16.369Z,996.30
2018-01-06T00:50:16.348Z,996.31
2018-01-06T00:51:16.317Z,996.33
2018-01-06T00:52:16.300Z,996.36
2018-01-06T00:53:16.278Z,996.35
2018-01-06T00:54:16.253Z,996.35
2018-01-06T00:55:16.234Z,996.39
2018-01-06T00:56:16.208Z,996.38
2018-01-06T00:57:16.187Z,996.38
2018-01-06T00:58:16.162Z,996.41
2018-01-06T00:59:16.144Z,996.39
2018-01-06T01:00:16.120Z,996.35
2018-01-06T01:01:16.099Z,996.38
2018-01-06T01:02:16.087Z,996.34
2018-01-06T01:03:16.050Z,996.34
2018-01-06T01:04:16.033Z,996.37
2018-01-06T01:05:16.005Z,996.32
2018-01-06T01:06:15.990Z,996.31
2018-01-06T01:07:15.962Z,996.32
2018-01-06T01:08:15.942Z,996.33
2018-01-06T01:09:15.915Z,996.34
2018-01-06T01:10:15.898Z,996.33
2018-01-06T01:11:15.871Z,996.33
2018-01-06T01:12:15.848Z,996.33
2018-01-06T01:13:15.828Z,996.36
2018-01-06T01:14:15.805Z,996.36
2018-01-06T01:15:15.784Z,996.40
2018-01-06T01:16:15.758Z,996.36
2018-01-06T01:17:15.740Z,996.36
2018-01-06T01:18:15.715Z,996.35
2018-01-06T01:19:15.751Z,996.38
2018-01-06T01:20:15.675Z,996.37
2018-01-06T01:21:15.650Z,996.39
2018-01-06T01:22:15.637Z,996.38
2018-01-06T01:23:15.603Z,996.41
2018-01-06T01:24:15.588Z,996.48
2018-01-06T01:25:15.563Z,996.51
2018-01-06T01:26:15.533Z,996.52
2018-01-06T01:27:15.514Z,996.52
2018-01-06T01:28:15.489Z,996.61
2018-01-06T01:29:15.465Z,996.57
2018-01-06T01:30:15.443Z,996.60
2018-01-06T01:31:15.422Z,996.58
2018-01-06T01:32:15.398Z,996.61
2018-01-06T01:33:15.375Z,996.62
2018-01-06T01:34:15.352Z,996.64
2018-01-06T01:35:15.334Z,996.61
2018-01-06T01:36:15.312Z,996.65
2018-01-06T01:37:15.295Z,996.68
2018-01-06T01:38:15.332Z,996.69
2018-01-06T01:39:15.241Z,996.69
2018-01-06T01:40:15.216Z,996.72
2018-01-06T01:41:15.290Z,996.73
2018-01-06T01:42:15.174Z,996.76
2018-01-06T01:43:15.151Z,996.74
2018-01-06T01:44:15.134Z,996.75
2018-01-06T01:45:15.105Z,996.74
2018-01-06T01:46:15.087Z,996.81
2018-01-06T01:47:15.063Z,996.82
2018-01-06T01:48:15.037Z,996.81
2018-01-06T01:49:15.016Z,996.81
2018-01-06T01:50:14.990Z,996.86
2018-01-06T01:51:14.972Z,996.89
2018-01-06T01:52:14.959Z,996.84
2018-01-06T01:53:14.922Z,996.80
2018-01-06T01:54:14.900Z,996.82
2018-01-06T01:55:14.877Z,996.81
2018-01-06T01:56:14.860Z,996.84
2018-01-06T01:57:14.864Z,996.88
2018-01-06T01:58:14.809Z,996.87
2018-01-06T01:59:14.794Z,996.86
2018-01-06T02:00:14.764Z,996.84
2018-01-06T02:01:14.741Z,996.86
2018-01-06T02:02:14.729Z,996.87
2018-01-06T02:03:14.698Z,996.93
2018-01-06T02:04:14.683Z,996.87
2018-01-06T02:05:14.651Z,996.83
2018-01-06T02:06:14.632Z,996.85
2018-01-06T02:07:14.608Z,996.85
2018-01-06T02:08:14.583Z,996.89
2018-01-06T02:09:14.559Z,996.92
2018-01-06T02:10:14.538Z,996.93
2018-01-06T02:11:14.541Z,996.93
2018-01-06T02:12:14.494Z,996.98
2018-01-06T02:13:14.476Z,996.94
2018-01-06T02:14:14.453Z,996.97
2018-01-06T02:15:14.428Z,996.98
2018-01-06T02:16:14.402Z,996.99
2018-01-06T02:17:14.456Z,997.03
2018-01-06T02:18:14.356Z,997.05
2018-01-06T02:19:14.337Z,997.02
2018-01-06T02:20:14.312Z,997.04
2018-01-06T02:21:14.290Z,997.03
2018-01-06T02:22:14.265Z,997.06
2018-01-06T02:23:14.247Z,997.02
2018-01-06T02:24:14.224Z,997.06
2018-01-06T02:25:14.203Z,997.06
2018-01-06T02:26:14.177Z,997.04
2018-01-06T02:27:14.150Z,997.08
2018-01-06T02:28:14.128Z,997.07
2018-01-06T02:29:14.107Z,997.06
2018-01-06T02:30:14.080Z,997.09
2018-01-06T02:31:14.056Z,997.09
2018-01-06T02:32:14.037Z,997.11
2018-01-06T02:33:14.018Z,997.15
2018-01-06T02:34:13.990Z,997.13
2018-01-06T02:35:13.971Z,997.16
2018-01-06T02:36:14.028Z,997.15
2018-01-06T02:37:13.924Z,997.16
2018-01-06T02:38:13.898Z,997.16
2018-01-06T02:39:13.968Z,997.10
2018-01-06T02:40:13.852Z,997.13
2018-01-06T02:41:13.833Z,997.06
2018-01-06T02:42:13.814Z,997.04
2018-01-06T02:43:13.784Z,997.07
2018-01-06T02:44:13.763Z,997.05
2018-01-06T02:45:13.738Z,997.06
2018-01-06T02:46:13.715Z,997.06
2018-01-06T02:47:13.792Z,997.05
2018-01-06T02:48:13.675Z,997.01
2018-01-06T02:49:13.648Z,997.04
2018-01-06T02:50:13.677Z,997.04
2018-01-06T02:51:13.603Z,997.09
2018-01-06T02:52:13.588Z,997.09
2018-01-06T02:53:13.557Z,997.06
2018-01-06T02:54:13.535Z,997.09
2018-01-06T02:55:13.512Z,997.09
2018-01-06T02:56:13.487Z,997.11
2018-01-06T02:57:13.464Z,997.09
2018-01-06T02:58:13.445Z,997.10
2018-01-06T02:59:13.417Z,997.09
2018-01-06T03:00:13.393Z,997.10
2018-01-06T03:01:13.370Z,997.10
2018-01-06T03:02:13.394Z,997.13
2018-01-06T03:03:13.326Z,997.15
2018-01-06T03:04:13.301Z,997.20
2018-01-06T03:05:13.280Z,997.21
2018-01-06T03:06:13.255Z,997.27
2018-01-06T03:07:13.233Z,997.24
2018-01-06T03:08:13.208Z,997.27
2018-01-06T03:09:13.208Z,997.27
2018-01-06T03:10:13.163Z,997.25
2018-01-06T03:11:13.139Z,997.26
2018-01-06T03:12:13.130Z,997.28
2018-01-06T03:13:13.095Z,997.24
2018-01-06T03:14:13.072Z,997.29
2018-01-06T03:15:13.099Z,997.32
2018-01-06T03:16:13.029Z,997.29
2018-01-06T03:17:13.003Z,997.32
2018-01-06T03:18:12.979Z,997.32
2018-01-06T03:19:12.958Z,997.38
2018-01-06T03:20:12.935Z,997.40
2018-01-06T03:21:12.910Z,997.41
2018-01-06T03:22:12.888Z,997.39
2018-01-06T03:23:12.868Z,997.47
2018-01-06T03:24:12.841Z,997.39
2018-01-06T03:25:12.817Z,997.39
2018-01-06T03:26:12.799Z,997.32
2018-01-06T03:27:12.772Z,997.35
2018-01-06T03:28:12.750Z,997.34
2018-01-06T03:29:12.726Z,997.41
2018-01-06T03:30:12.703Z,997.37
2018-01-06T03:31:12.681Z,997.34
2018-01-06T03:32:12.657Z,997.38
2018-01-06T03:33:12.637Z,997.36
2018-01-06T03:34:12.608Z,997.39
2018-01-06T03:35:12.588Z,997.39
2018-01-06T03:36:12.566Z,997.38
2018-01-06T03:37:12.543Z,997.42
2018-01-06T03:38:12.517Z,997.40
2018-01-06T03:39:12.495Z,997.45
2018-01-06T03:40:12.476Z,997.43
2018-01-06T03:41:12.448Z,997.41
2018-01-06T03:42:12.442Z,997.46
2018-01-06T03:43:12.405Z,997.49
2018-01-06T03:44:12.380Z,997.58
2018-01-06T03:45:12.418Z,997.58
2018-01-06T03:46:12.339Z,997.58
2018-01-06T03:47:12.311Z,997.61
2018-01-06T03:48:12.348Z,997.63
2018-01-06T03:49:12.263Z,997.65
2018-01-06T03:50:12.244Z,997.63
2018-01-06T03:51:12.219Z,997.66
2018-01-06T03:52:12.196Z,997.64
2018-01-06T03:53:12.173Z,997.64
2018-01-06T03:54:12.148Z,997.64
2018-01-06T03:55:12.140Z,997.65
2018-01-06T03:56:12.102Z,997.65
2018-01-06T03:57:12.084Z,997.61
2018-01-06T03:58:12.060Z,997.56
2018-01-06T03:59:12.033Z,997.51
2018-01-06T04:00:12.013Z,997.49
2018-01-06T04:01:11.988Z,997.49
2018-01-06T04:02:11.965Z,997.50
2018-01-06T04:03:11.941Z,997.50
2018-01-06T04:04:11.917Z,997.55
2018-01-06T04:05:11.894Z,997.49
2018-01-06T04:06:11.871Z,997.54
2018-01-06T04:07:11.990Z,997.48
2018-01-06T04:08:11.823Z,997.51
2018-01-06T04:09:11.802Z,997.48
2018-01-06T04:10:11.844Z,997.53
2018-01-06T04:11:11.756Z,997.54
2018-01-06T04:12:11.732Z,997.56
2018-01-06T04:13:11.713Z,997.57
2018-01-06T04:14:11.685Z,997.59
2018-01-06T04:15:11.694Z,997.62
2018-01-06T04:16:11.640Z,997.63
2018-01-06T04:17:11.620Z,997.63
2018-01-06T04:18:11.595Z,997.66
2018-01-06T04:19:11.575Z,997.64
2018-01-06T04:20:11.550Z,997.69
2018-01-06T04:21:11.525Z,997.68
2018-01-06T04:22:11.510Z,997.71
2018-01-06T04:23:11.478Z,997.71
2018-01-06T04:24:11.459Z,997.67
2018-01-06T04:25:11.435Z,997.68
2018-01-06T04:26:11.418Z,997.70
2018-01-06T04:27:11.383Z,997.68
2018-01-06T04:28:11.361Z,997.69
2018-01-06T04:29:11.341Z,997.70
2018-01-06T04:30:11.326Z,997.69
2018-01-06T04:31:11.290Z,997.74
2018-01-06T04:32:11.272Z,997.71
2018-01-06T04:33:11.248Z,997.76
2018-01-06T04:34:11.224Z,997.73
2018-01-06T04:35:11.207Z,997.74
2018-01-06T04:36:11.178Z,997.73
2018-01-06T04:37:11.156Z,997.74
2018-01-06T04:38:11.132Z,997.79
2018-01-06T04:39:11.108Z,997.77
2018-01-06T04:40:11.187Z,997.78
2018-01-06T04:41:11.062Z,997.76
2018-01-06T04:42:11.037Z,997.84
2018-01-06T04:43:11.062Z,997.87
2018-01-06T04:44:10.992Z,997.90
2018-01-06T04:45:10.969Z,997.90
2018-01-06T04:46:10.956Z,997.93
2018-01-06T04:47:10.924Z,997.92
2018-01-06T04:48:10.897Z,997.96
2018-01-06T04:49:10.875Z,997.98
2018-01-06T04:50:10.854Z,998.00
2018-01-06T04:51:10.830Z,998.03
2018-01-06T04:52:10.808Z,998.00
2018-01-06T04:53:10.785Z,997.99
2018-01-06T04:54:10.760Z,997.99
2018-01-06T04:55:10.746Z,997.94
2018-01-06T04:56:10.730Z,998.02
2018-01-06T04:57:10.697Z,997.99
2018-01-06T04:58:10.669Z,997.99
2018-01-06T04:59:10.647Z,998.04
2018-01-06T05:00:10.623Z,998.05
2018-01-06T05:01:10.604Z,998.07
2018-01-06T05:02:10.576Z,998.07
2018-01-06T05:03:10.552Z,998.14
2018-01-06T05:04:10.536Z,998.16
2018-01-06T05:05:10.648Z,998.13
2018-01-06T05:06:10.485Z,998.15
2018-01-06T05:07:10.463Z,998.11
2018-01-06T05:08:10.476Z,998.14
2018-01-06T05:09:10.425Z,998.22
2018-01-06T05:10:10.396Z,998.23
2018-01-06T05:11:10.375Z,998.30
2018-01-06T05:12:10.354Z,998.31
2018-01-06T05:13:10.362Z,998.35
2018-01-06T05:14:10.304Z,998.35
2018-01-06T05:15:10.281Z,998.42
2018-01-06T05:16:10.341Z,998.41
2018-01-06T05:17:10.238Z,998.50
2018-01-06T05:18:10.212Z,998.50
2018-01-06T05:19:10.244Z,998.49
2018-01-06T05:20:10.167Z,998.51
2018-01-06T05:21:10.147Z,998.50
2018-01-06T05:22:10.122Z,998.47
2018-01-06T05:23:10.101Z,998.41
2018-01-06T05:24:10.077Z,998.41
2018-01-06T05:25:10.054Z,998.35
2018-01-06T05:26:10.031Z,998.40
2018-01-06T05:27:10.011Z,998.39
2018-01-06T05:28:09.993Z,998.42
2018-01-06T05:29:09.966Z,998.47
2018-01-06T05:30:09.941Z,998.51
2018-01-06T05:31:09.919Z,998.54
2018-01-06T05:32:09.900Z,998.60
2018-01-06T05:33:09.881Z,998.62
2018-01-06T05:34:09.852Z,998.64
2018-01-06T05:35:09.831Z,998.66
2018-01-06T05:36:09.809Z,998.63
2018-01-06T05:37:09.784Z,998.60
2018-01-06T05:38:09.883Z,998.58
2018-01-06T05:39:09.740Z,998.54
2018-01-06T05:40:09.720Z,998.55
2018-01-06T05:41:09.701Z,998.57
2018-01-06T05:42:09.672Z,998.58
2018-01-06T05:43:09.649Z,998.59
2018-01-06T05:44:09.628Z,998.64
2018-01-06T05:45:09.608Z,998.61
2018-01-06T05:46:09.581Z,998.69
2018-01-06T05:47:09.560Z,998.65
2018-01-06T05:48:09.538Z,998.71
2018-01-06T05:49:09.518Z,998.72
2018-01-06T05:50:09.498Z,998.74
2018-01-06T05:51:09.471Z,998.78
2018-01-06T05:52:09.450Z,998.78
2018-01-06T05:53:09.425Z,998.85
2018-01-06T05:54:09.417Z,998.90
2018-01-06T05:55:09.382Z,998.90
2018-01-06T05:56:09.359Z,998.94
2018-01-06T05:57:09.337Z,998.93
2018-01-06T05:58:09.316Z,998.97
2018-01-06T05:59:09.291Z,998.98
2018-01-06T06:00:09.270Z,998.99
2018-01-06T06:01:09.252Z,999.04
2018-01-06T06:02:09.226Z,999.07
2018-01-06T06:03:09.206Z,999.06
2018-01-06T06:04:09.185Z,999.03
2018-01-06T06:05:09.171Z,999.07
2018-01-06T06:06:09.137Z,999.05
2018-01-06T06:07:09.115Z,999.03
2018-01-06T06:08:09.095Z,999.02
2018-01-06T06:09:09.074Z,999.04
2018-01-06T06:10:09.049Z,999.04
2018-01-06T06:11:09.129Z,999.07
2018-01-06T06:12:09.003Z,999.11
2018-01-06T06:13:08.984Z,999.13
2018-01-06T06:14:08.984Z,999.16
2018-01-06T06:15:08.940Z,999.15
2018-01-06T06:16:08.918Z,999.18
2018-01-06T06:17:08.895Z,999.21
2018-01-06T06:18:08.882Z,999.23
2018-01-06T06:19:08.854Z,999.21
2018-01-06T06:20:08.828Z,999.22
2018-01-06T06:21:08.808Z,999.24
2018-01-06T06:22:08.783Z,999.19
2018-01-06T06:23:08.764Z,999.23
2018-01-06T06:24:08.743Z,999.21
2018-01-06T06:25:08.718Z,999.23
2018-01-06T06:26:08.695Z,999.23
2018-01-06T06:27:08.674Z,999.29
2018-01-06T06:28:08.652Z,999.31
2018-01-06T06:29:08.632Z,999.28
2018-01-06T06:30:08.607Z,999.30
2018-01-06T06:31:08.583Z,999.31
2018-01-06T06:32:08.569Z,999.29
2018-01-06T06:33:08.644Z,999.30
2018-01-06T06:34:08.518Z,999.32
2018-01-06T06:35:08.497Z,999.34
2018-01-06T06:36:08.489Z,999.35
2018-01-06T06:37:08.464Z,999.38
2018-01-06T06:38:08.446Z,999.36
2018-01-06T06:39:08.412Z,999.35
2018-01-06T06:40:08.395Z,999.33
2018-01-06T06:41:08.365Z,999.30
2018-01-06T06:42:08.342Z,999.28
2018-01-06T06:43:08.323Z,999.37
2018-01-06T06:44:08.302Z,999.32
2018-01-06T06:45:08.283Z,999.34
2018-01-06T06:46:08.260Z,999.30
2018-01-06T06:47:08.234Z,999.29
2018-01-06T06:48:08.221Z,999.32
2018-01-06T06:49:08.191Z,999.37
2018-01-06T06:50:08.169Z,999.34
2018-01-06T06:51:08.149Z,999.32
2018-01-06T06:52:08.126Z,999.32
2018-01-06T06:53:08.103Z,999.35
2018-01-06T06:54:08.080Z,999.40
2018-01-06T06:55:08.061Z,999.42
2018-01-06T06:56:08.039Z,999.43
2018-01-06T06:57:08.020Z,999.43
2018-01-06T06:58:07.999Z,999.46
2018-01-06T06:59:07.973Z,999.46
2018-01-06T07:00:07.953Z,999.43
2018-01-06T07:01:07.930Z,999.49
2018-01-06T07:02:07.907Z,999.45
2018-01-06T07:03:07.889Z,999.43
2018-01-06T07:04:07.867Z,999.55
2018-01-06T07:05:07.869Z,999.54
2018-01-06T07:06:07.920Z,999.55
2018-01-06T07:07:07.799Z,999.55
2018-01-06T07:08:07.782Z,999.54
2018-01-06T07:09:07.759Z,999.52
2018-01-06T07:10:07.737Z,999.55
2018-01-06T07:11:07.711Z,999.56
2018-01-06T07:12:07.690Z,999.59
2018-01-06T07:13:07.670Z,999.62
2018-01-06T07:14:07.665Z,999.64
2018-01-06T07:15:07.633Z,999.59
2018-01-06T07:16:07.606Z,999.59
2018-01-06T07:17:07.584Z,999.55
2018-01-06T07:18:07.559Z,999.50
2018-01-06T07:19:07.537Z,999.54
2018-01-06T07:20:07.515Z,999.54
2018-01-06T07:21:07.495Z,999.56
2018-01-06T07:22:07.471Z,999.55
2018-01-06T07:23:07.450Z,999.61
2018-01-06T07:24:07.429Z,999.63
2018-01-06T07:25:07.414Z,999.67
2018-01-06T07:26:07.384Z,999.64
2018-01-06T07:27:07.367Z,999.68
2018-01-06T07:28:07.446Z,999.65
2018-01-06T07:29:07.319Z,999.69
2018-01-06T07:30:07.299Z,999.66
2018-01-06T07:31:07.329Z,999.71
2018-01-06T07:32:07.254Z,999.73
2018-01-06T07:33:07.238Z,999.71
2018-01-06T07:34:07.212Z,999.81
2018-01-06T07:35:07.188Z,999.84
2018-01-06T07:36:07.164Z,999.82
2018-01-06T07:37:07.146Z,999.88
2018-01-06T07:38:07.123Z,999.90
2018-01-06T07:39:07.248Z,999.94
2018-01-06T07:40:07.077Z,999.90
2018-01-06T07:41:07.057Z,999.94
2018-01-06T07:42:07.104Z,999.94
2018-01-06T07:43:07.011Z,999.93
2018-01-06T07:44:07.007Z,999.96
2018-01-06T07:45:06.973Z,999.98
2018-01-06T07:46:06.946Z,999.93
2018-01-06T07:47:06.928Z,1000.01
2018-01-06T07:48:06.905Z,1000.01
2018-01-06T07:49:06.881Z,1000.04
2018-01-06T07:50:06.867Z,1000.07
2018-01-06T07:51:06.835Z,1000.09
2018-01-06T07:52:06.813Z,1000.04
2018-01-06T07:53:06.793Z,1000.02
2018-01-06T07:54:06.771Z,1000.05
2018-01-06T07:55:06.750Z,1000.04
2018-01-06T07:56:06.728Z,1000.08
2018-01-06T07:57:06.712Z,1000.03
2018-01-06T07:58:06.686Z,1000.05
2018-01-06T07:59:06.663Z,1000.07
2018-01-06T08:00:06.640Z,1000.04
2018-01-06T08:01:06.696Z,1000.05
2018-01-06T08:02:06.599Z,1000.04
2018-01-06T08:03:06.573Z,1000.05
2018-01-06T08:04:06.604Z,1000.06
2018-01-06T08:05:06.534Z,1000.06
2018-01-06T08:06:06.509Z,1000.09
2018-01-06T08:07:06.489Z,1000.15
2018-01-06T08:08:06.464Z,1000.16
2018-01-06T08:09:06.450Z,1000.17
2018-01-06T08:10:06.420Z,1000.12
2018-01-06T08:11:06.406Z,1000.19
2018-01-06T08:12:06.380Z,1000.19
2018-01-06T08:13:06.358Z,1000.20
2018-01-06T08:14:06.332Z,1000.23
2018-01-06T08:15:06.309Z,1000.23
2018-01-06T08:16:06.286Z,1000.25
2018-01-06T08:17:06.266Z,1000.22
2018-01-06T08:18:06.243Z,1000.21
2018-01-06T08:19:06.234Z,1000.21
2018-01-06T08:20:06.200Z,1000.22
2018-01-06T08:21:06.177Z,1000.23
2018-01-06T08:22:06.166Z,1000.23
2018-01-06T08:23:06.259Z,1000.25
2018-01-06T08:24:06.108Z,1000.34
2018-01-06T08:25:06.087Z,1000.34
2018-01-06T08:26:06.065Z,1000.34
2018-01-06T08:27:06.046Z,1000.36
2018-01-06T08:28:06.032Z,1000.42
2018-01-06T08:29:06.001Z,1000.40
2018-01-06T08:30:05.982Z,1000.48
2018-01-06T08:31:05.972Z,1000.45
2018-01-06T08:32:05.934Z,1000.49
2018-01-06T08:33:05.914Z,1000.45
2018-01-06T08:34:05.977Z,1000.47
2018-01-06T08:35:05.874Z,1000.44
2018-01-06T08:36:05.856Z,1000.48
2018-01-06T08:37:05.836Z,1000.53
2018-01-06T08:38:05.804Z,1000.53
2018-01-06T08:39:05.786Z,1000.58
2018-01-06T08:40:05.779Z,1000.61
2018-01-06T08:41:05.736Z,1000.60
2018-01-06T08:42:05.714Z,1000.63
2018-01-06T08:43:05.701Z,1000.66
2018-01-06T08:44:05.669Z,1000.67
2018-01-06T08:45:05.648Z,1000.68
2018-01-06T08:46:05.634Z,1000.70
2018-01-06T08:47:05.602Z,1000.74
2018-01-06T08:48:05.583Z,1000.76
2018-01-06T08:49:05.563Z,1000.76
2018-01-06T08:50:05.539Z,1000.83
2018-01-06T08:51:05.514Z,1000.82
2018-01-06T08:52:05.497Z,1000.81
2018-01-06T08:53:05.474Z,1000.80
2018-01-06T08:54:05.462Z,1000.85
2018-01-06T08:55:05.431Z,1000.86
2018-01-06T08:56:05.559Z,1000.88
2018-01-06T08:57:05.387Z,1000.85
2018-01-06T08:58:05.374Z,1000.91
2018-01-06T08:59:05.363Z,1000.88
2018-01-06T09:00:05.358Z,1000.89
2018-01-06T09:01:05.302Z,1000.94
2018-01-06T09:02:05.276Z,1000.93
2018-01-06T09:03:05.254Z,1000.93
2018-01-06T09:04:05.237Z,1000.99
2018-01-06T09:05:05.223Z,1001.01
2018-01-06T09:06:05.191Z,1001.02
2018-01-06T09:07:05.165Z,1001.03
2018-01-06T09:08:05.145Z,1001.04
2018-01-06T09:09:05.122Z,1001.04
2018-01-06T09:10:05.114Z,1001.03
2018-01-06T09:11:05.078Z,1001.00
2018-01-06T09:12:05.067Z,1000.95
2018-01-06T09:13:05.046Z,1001.01
2018-01-06T09:14:05.015Z,1001.05
2018-01-06T09:15:04.993Z,1001.03
2018-01-06T09:16:04.972Z,1001.02
2018-01-06T09:17:04.949Z,1001.03
2018-01-06T09:18:04.928Z,1001.10
2018-01-06T09:19:04.907Z,1001.07
2018-01-06T09:20:04.885Z,1001.06
2018-01-06T09:21:04.867Z,1001.10
2018-01-06T09:22:04.841Z,1001.11
2018-01-06T09:23:04.821Z,1001.15
2018-01-06T09:24:04.801Z,1001.16
2018-01-06T09:25:04.794Z,1001.16
2018-01-06T09:26:04.875Z,1001.22
2018-01-06T09:27:04.734Z,1001.23
2018-01-06T09:28:04.711Z,1001.26
2018-01-06T09:29:04.747Z,1001.29
2018-01-06T09:30:04.676Z,1001.33
2018-01-06T09:31:04.646Z,1001.34
2018-01-06T09:32:04.630Z,1001.35
2018-01-06T09:33:04.606Z,1001.39
2018-01-06T09:34:04.589Z,1001.41
2018-01-06T09:35:04.578Z,1001.43
2018-01-06T09:36:04.538Z,1001.39
2018-01-06T09:37:04.522Z,1001.39
2018-01-06T09:38:04.498Z,1001.43
2018-01-06T09:39:04.492Z,1001.47
2018-01-06T09:40:04.456Z,1001.51
2018-01-06T09:41:04.436Z,1001.55
2018-01-06T09:42:04.421Z,1001.55
2018-01-06T09:43:04.390Z,1001.50
2018-01-06T09:44:04.369Z,1001.55
2018-01-06T09:45:04.346Z,1001.54
2018-01-06T09:46:04.334Z,1001.57
2018-01-06T09:47:04.307Z,1001.54
2018-01-06T09:48:04.432Z,1001.54
2018-01-06T09:49:04.308Z,1001.55
2018-01-06T09:50:04.252Z,1001.54
2018-01-06T09:51:04.291Z,1001.59
2018-01-06T09:52:04.214Z,1001.58
2018-01-06T09:53:04.182Z,1001.61
2018-01-06T09:54:04.164Z,1001.58
2018-01-06T09:55:04.139Z,1001.58
2018-01-06T09:56:04.116Z,1001.62
2018-01-06T09:57:04.095Z,1001.61
2018-01-06T09:58:04.076Z,1001.65
2018-01-06T09:59:04.053Z,1001.70
2018-01-06T10:00:04.034Z,1001.69
2018-01-06T10:01:04.020Z,1001.69
2018-01-06T10:02:03.991Z,1001.70
2018-01-06T10:03:03.967Z,1001.77
2018-01-06T10:04:03.947Z,1001.79
2018-01-06T10:05:03.925Z,1001.79
2018-01-06T10:06:03.906Z,1001.81
2018-01-06T10:07:03.886Z,1001.81
2018-01-06T10:08:03.872Z,1001.80
2018-01-06T10:09:03.842Z,1001.84
2018-01-06T10:10:03.822Z,1001.84
2018-01-06T10:11:03.814Z,1001.92
2018-01-06T10:12:03.784Z,1001.90
2018-01-06T10:13:03.769Z,1001.89
2018-01-06T10:14:03.741Z,1001.88
2018-01-06T10:15:03.722Z,1001.82
2018-01-06T10:16:03.697Z,1001.86
2018-01-06T10:17:03.677Z,1001.85
2018-01-06T10:18:03.655Z,1001.83
2018-01-06T10:19:03.647Z,1001.88
2018-01-06T10:20:03.612Z,1001.85
2018-01-06T10:21:03.601Z,1001.83
2018-01-06T10:22:03.573Z,1001.81
2018-01-06T10:23:03.568Z,1001.83
2018-01-06T10:24:03.541Z,1001.82
2018-01-06T10:25:03.513Z,1001.85
2018-01-06T10:26:03.490Z,1001.87
2018-01-06T10:27:03.475Z,1001.86
2018-01-06T10:28:03.448Z,1001.89
2018-01-06T10:29:03.449Z,1001.88
2018-01-06T10:30:03.409Z,1001.90
2018-01-06T10:31:03.395Z,1001.94
2018-01-06T10:32:03.369Z,1001.98
2018-01-06T10:33:03.362Z,1002.05
2018-01-06T10:34:03.328Z,1002.06
2018-01-06T10:35:03.320Z,1002.08
2018-01-06T10:36:03.287Z,1002.01
2018-01-06T10:37:03.268Z,1002.02
2018-01-06T10:38:03.242Z,1001.98
2018-01-06T10:39:03.222Z,1001.96
2018-01-06T10:40:03.208Z,1001.92
2018-01-06T10:41:03.195Z,1001.95
2018-01-06T10:42:03.170Z,1001.96
2018-01-06T10:43:03.249Z,1001.99
2018-01-06T10:44:03.122Z,1001.99
2018-01-06T10:45:03.107Z,1001.99
2018-01-06T10:46:03.185Z,1002.02
2018-01-06T10:47:03.062Z,1002.00
2018-01-06T10:48:03.041Z,1002.00
2018-01-06T10:49:03.031Z,1002.00
2018-01-06T10:50:03.002Z,1002.05
2018-01-06T10:51:02.983Z,1002.02
2018-01-06T10:52:02.960Z,1002.06
2018-01-06T10:53:02.948Z,1002.08
2018-01-06T10:54:02.944Z,1002.13
2018-01-06T10:55:02.897Z,1002.12
2018-01-06T10:56:02.877Z,1002.12
2018-01-06T10:57:02.860Z,1002.12
2018-01-06T10:58:02.844Z,1002.09
2018-01-06T10:59:02.820Z,1002.12
2018-01-06T11:00:02.807Z,1002.15
2018-01-06T11:01:02.787Z,1002.13
2018-01-06T11:02:02.758Z,1002.17
2018-01-06T11:03:02.738Z,1002.17
2018-01-06T11:04:02.726Z,1002.15
2018-01-06T11:05:02.709Z,1002.20
2018-01-06T11:06:02.679Z,1002.21
2018-01-06T11:07:02.666Z,1002.23
2018-01-06T11:08:02.642Z,1002.23
2018-01-06T11:09:02.620Z,1002.27
2018-01-06T11:10:02.604Z,1002.32
2018-01-06T11:11:02.589Z,1002.28
2018-01-06T11:12:02.563Z,1002.34
2018-01-06T11:13:02.622Z,1002.30
2018-01-06T11:14:02.522Z,1002.35
2018-01-06T11:15:02.504Z,1002.37
2018-01-06T11:16:02.504Z,1002.37
2018-01-06T11:17:02.463Z,1002.40
2018-01-06T11:18:02.449Z,1002.40
2018-01-06T11:19:02.490Z,1002.41
2018-01-06T11:20:02.402Z,1002.42
2018-01-06T11:21:02.391Z,1002.39
2018-01-06T11:22:02.372Z,1002.40
2018-01-06T11:23:02.345Z,1002.40
2018-01-06T11:24:02.327Z,1002.43
2018-01-06T11:25:02.304Z,1002.39
2018-01-06T11:26:02.285Z,1002.36
2018-01-06T11:27:02.266Z,1002.36
2018-01-06T11:28:02.246Z,1002.38
2018-01-06T11:29:02.233Z,1002.39
2018-01-06T11:30:02.216Z,1002.38
2018-01-06T11:31:02.194Z,1002.41
2018-01-06T11:32:02.170Z,1002.41
2018-01-06T11:33:02.168Z,1002.46
2018-01-06T11:34:02.137Z,1002.49
2018-01-06T11:35:02.127Z,1002.49
2018-01-06T11:36:02.097Z,1002.54
2018-01-06T11:37:02.068Z,1002.56
2018-01-06T11:38:02.053Z,1002.53
2018-01-06T11:39:02.029Z,1002.51
2018-01-06T11:40:02.040Z,1002.53
2018-01-06T11:41:01.999Z,1002.52
2018-01-06T11:42:01.970Z,1002.50
2018-01-06T11:43:01.951Z,1002.48
2018-01-06T11:44:01.931Z,1002.46
2018-01-06T11:45:01.913Z,1002.48
2018-01-06T11:46:02.038Z,1002.43
2018-01-06T11:47:01.877Z,1002.50
2018-01-06T11:48:01.860Z,1002.47
2018-01-06T11:49:01.856Z,1002.47
2018-01-06T11:50:01.824Z,1002.49
2018-01-06T11:51:01.798Z,1002.54
2018-01-06T11:52:01.791Z,1002.55
2018-01-06T11:53:01.757Z,1002.53
2018-01-06T11:54:01.746Z,1002.52
2018-01-06T11:55:01.718Z,1002.57
2018-01-06T11:56:01.702Z,1002.53
2018-01-06T11:57:01.682Z,1002.49
2018-01-06T11:58:01.658Z,1002.57
2018-01-06T11:59:01.642Z,1002.56
2018-01-06T12:00:01.621Z,1002.57
2018-01-06T12:01:01.600Z,1002.64
2018-01-06T12:02:01.590Z,1002.63
2018-01-06T12:03:01.559Z,1002.63
2018-01-06T12:04:01.542Z,1002.64
2018-01-06T12:05:01.560Z,1002.67
2018-01-06T12:06:01.503Z,1002.67
2018-01-06T12:07:01.485Z,1002.69
2018-01-06T12:08:01.469Z,1002.73
2018-01-06T12:09:01.445Z,1002.78
2018-01-06T12:10:01.444Z,1002.77
2018-01-06T12:11:01.456Z,1002.83
2018-01-06T12:12:01.395Z,1002.82
2018-01-06T12:13:01.368Z,1002.83
2018-01-06T12:14:01.363Z,1002.81
2018-01-06T12:15:01.330Z,1002.84
2018-01-06T12:16:01.313Z,1002.86
2018-01-06T12:17:01.297Z,1002.84
2018-01-06T12:18:01.281Z,1002.88
2018-01-06T12:19:01.263Z,1002.84